createdAt,value
2022-08-01T00:00:23.038Z,88.79
2022-08-01T00:03:12.254Z,87.96
2022-08-01T00:05:53.997Z,87.33
2022-08-01T00:08:44.058Z,87.34
2022-08-01T00:11:33.025Z,87.88
2022-08-01T00:14:22.127Z,88.37
2022-08-01T00:17:15.678Z,89.65
2022-08-01T00:20:04.472Z,89.82
2022-08-01T00:22:58.788Z,89.46
2022-08-01T00:25:47.142Z,88.97
2022-08-01T00:28:29.025Z,88.12
2022-08-01T00:31:16.722Z,88.13
2022-08-01T00:33:59.313Z,89.08
2022-08-01T00:36:47.723Z,88.24
2022-08-01T00:39:28.932Z,88.80
2022-08-01T00:42:19.214Z,88.25
2022-08-01T00:45:00.011Z,88.17
2022-08-01T00:47:48.193Z,88.09
2022-08-01T00:50:36.807Z,87.76
2022-08-01T00:53:24.923Z,87.31
2022-08-01T00:56:07.036Z,86.62
2022-08-01T00:58:55.222Z,87.86
2022-08-01T01:01:39.624Z,87.81
2022-08-01T01:04:27.236Z,88.05
2022-08-01T01:07:17.807Z,87.73
2022-08-01T01:10:29.168Z,87.82
2022-08-01T01:13:20.452Z,87.89
2022-08-01T01:16:13.202Z,87.65
2022-08-01T01:19:08.073Z,87.78
2022-08-01T01:22:30.051Z,87.06
2022-08-01T01:25:45.212Z,86.62
2022-08-01T01:28:42.714Z,86.80
2022-08-01T01:31:33.902Z,87.47
2022-08-01T01:34:19.212Z,87.59
2022-08-01T01:37:09.451Z,86.89
2022-08-01T01:39:54.618Z,87.55
2022-08-01T01:42:43.115Z,87.50
2022-08-01T01:45:26.207Z,87.78
2022-08-01T01:48:15.051Z,86.09
2022-08-01T01:50:59.229Z,86.35
2022-08-01T01:53:49.857Z,86.50
2022-08-01T01:56:33.212Z,87.37
2022-08-01T01:59:29.072Z,87.79
2022-08-01T02:02:15.813Z,88.27
2022-08-01T02:05:06.582Z,87.57
2022-08-01T02:07:49.224Z,87.52
2022-08-01T02:10:39.103Z,88.44
2022-08-01T02:13:21.334Z,87.59
2022-08-01T02:16:11.096Z,88.72
2022-08-01T02:18:52.279Z,89.32
2022-08-01T02:21:47.120Z,89.05
2022-08-01T02:24:48.913Z,88.80
2022-08-01T02:27:37.211Z,88.15
2022-08-01T02:30:25.232Z,87.31
2022-08-01T02:33:15.830Z,87.47
2022-08-01T02:36:32.083Z,86.99
2022-08-01T02:39:12.130Z,87.05
2022-08-01T02:42:05.434Z,88.29
2022-08-01T02:44:53.125Z,87.76
2022-08-01T02:47:45.604Z,87.70
2022-08-01T02:50:27.138Z,86.42
2022-08-01T02:53:17.194Z,86.85
2022-08-01T02:56:01.131Z,86.19
2022-08-01T02:58:51.417Z,86.55
2022-08-01T03:01:34.125Z,85.77
2022-08-01T03:04:26.232Z,85.36
2022-08-01T03:07:10.127Z,85.39
2022-08-01T03:09:59.256Z,85.56
2022-08-01T03:12:42.144Z,84.91
2022-08-01T03:15:32.244Z,84.74
2022-08-01T03:18:16.518Z,84.62
2022-08-01T03:21:05.361Z,84.43
2022-08-01T03:23:57.129Z,83.62
2022-08-01T03:26:41.320Z,82.79
2022-08-01T03:29:32.503Z,83.12
2022-08-01T03:32:15.933Z,82.02
2022-08-01T03:35:06.607Z,82.09
2022-08-01T03:38:17.520Z,81.43
2022-08-01T03:41:06.163Z,83.02
2022-08-01T03:44:04.781Z,83.27
2022-08-01T03:46:56.437Z,83.40
2022-08-01T03:49:41.811Z,83.52
2022-08-01T03:52:30.911Z,83.94
2022-08-01T03:55:16.043Z,83.30
2022-08-01T03:58:07.134Z,82.78
2022-08-01T04:00:50.310Z,82.48
2022-08-01T04:03:41.889Z,83.09
2022-08-01T04:06:24.656Z,82.80
2022-08-01T04:09:14.070Z,82.05
2022-08-01T04:11:55.247Z,81.93
2022-08-01T04:14:42.204Z,82.27
2022-08-01T04:17:24.343Z,82.36
2022-08-01T04:20:12.590Z,82.45
2022-08-01T04:23:06.148Z,82.70
2022-08-01T04:25:55.145Z,82.47
2022-08-01T04:28:40.872Z,83.21
2022-08-01T04:31:33.153Z,82.55
2022-08-01T04:34:14.303Z,83.28
2022-08-01T04:37:03.193Z,83.46
2022-08-01T04:39:50.689Z,83.57
2022-08-01T04:42:39.561Z,83.11
2022-08-01T04:45:20.335Z,82.99
2022-08-01T04:48:08.553Z,82.76
2022-08-01T04:50:49.856Z,82.86
2022-08-01T04:53:37.218Z,81.66
2022-08-01T04:56:18.313Z,81.66
2022-08-01T04:59:24.940Z,83.13
2022-08-01T05:02:09.486Z,84.69
2022-08-01T05:04:58.988Z,85.15
2022-08-01T05:07:44.826Z,84.14
2022-08-01T05:10:36.171Z,84.93
2022-08-01T05:13:17.818Z,84.68
2022-08-01T05:16:04.227Z,85.22
2022-08-01T05:18:45.400Z,85.45
2022-08-01T05:21:34.213Z,84.58
2022-08-01T05:24:24.368Z,85.23
2022-08-01T05:27:07.231Z,85.26
2022-08-01T05:29:55.329Z,84.01
2022-08-01T05:32:38.978Z,83.04
2022-08-01T05:35:48.365Z,82.68
2022-08-01T05:38:31.012Z,83.34
2022-08-01T05:41:18.301Z,84.56
2022-08-01T05:43:59.217Z,84.94
2022-08-01T05:46:47.556Z,85.12
2022-08-01T05:49:28.660Z,84.39
2022-08-01T05:52:15.426Z,83.89
2022-08-01T05:54:56.238Z,82.93
2022-08-01T05:57:46.892Z,84.85
2022-08-01T06:00:27.601Z,83.87
2022-08-01T06:03:16.366Z,82.20
2022-08-01T06:05:59.491Z,80.56
2022-08-01T06:08:47.431Z,80.52
2022-08-01T06:11:28.991Z,80.99
2022-08-01T06:14:21.494Z,77.44
2022-08-01T06:17:02.820Z,77.75
2022-08-01T06:19:51.188Z,77.56
2022-08-01T06:22:51.777Z,77.67
2022-08-01T06:25:40.354Z,78.91
2022-08-01T06:28:21.227Z,79.47
2022-08-01T06:31:13.617Z,78.23
2022-08-01T06:33:56.783Z,77.71
2022-08-01T06:36:43.345Z,76.55
2022-08-01T06:39:25.039Z,76.34
2022-08-01T06:42:15.917Z,76.41
2022-08-01T06:44:56.278Z,75.75
2022-08-01T06:47:48.868Z,74.76
2022-08-01T06:50:31.260Z,74.36
2022-08-01T06:53:21.186Z,73.72
2022-08-01T06:56:03.771Z,70.99
2022-08-01T06:58:52.508Z,72.06
2022-08-01T07:01:35.214Z,72.01
2022-08-01T07:04:23.594Z,71.22
2022-08-01T07:07:04.410Z,72.92
2022-08-01T07:09:52.366Z,73.10
2022-08-01T07:12:35.410Z,72.49
2022-08-01T07:15:27.521Z,70.87
2022-08-01T07:18:11.667Z,69.99
2022-08-01T07:20:59.525Z,71.88
2022-08-01T07:23:55.750Z,72.28
2022-08-01T07:26:52.202Z,72.21
2022-08-01T07:29:36.426Z,70.86
2022-08-01T07:32:23.451Z,69.71
2022-08-01T07:35:05.810Z,69.66
2022-08-01T07:37:57.478Z,69.77
2022-08-01T07:40:40.412Z,68.89
2022-08-01T07:43:31.415Z,68.07
2022-08-01T07:46:14.042Z,67.47
2022-08-01T07:49:03.007Z,66.04
2022-08-01T07:52:03.435Z,68.01
2022-08-01T07:54:52.662Z,69.43
2022-08-01T07:57:33.296Z,70.00
2022-08-01T08:00:21.911Z,69.63
2022-08-01T08:03:06.875Z,69.62
2022-08-01T08:05:59.727Z,69.73
2022-08-01T08:08:42.316Z,69.12
2022-08-01T08:11:32.609Z,70.04
2022-08-01T08:14:13.312Z,69.63
2022-08-01T08:17:02.600Z,69.66
2022-08-01T08:19:46.690Z,69.59
2022-08-01T08:22:41.307Z,69.24
2022-08-01T08:25:30.681Z,67.71
2022-08-01T08:28:11.492Z,67.97
2022-08-01T08:31:03.214Z,67.61
2022-08-01T08:33:44.448Z,66.77
2022-08-01T08:36:32.421Z,65.53
2022-08-01T08:39:14.479Z,64.44
2022-08-01T08:42:09.269Z,64.00
2022-08-01T08:44:51.345Z,62.75
2022-08-01T08:47:43.570Z,61.64
2022-08-01T08:50:24.527Z,61.89
2022-08-01T08:53:18.280Z,61.90
2022-08-01T08:56:02.818Z,61.61
2022-08-01T08:58:53.000Z,61.09
2022-08-01T09:01:36.316Z,60.17
2022-08-01T09:04:27.141Z,59.08
2022-08-01T09:07:09.811Z,57.92
2022-08-01T09:10:00.520Z,56.61
2022-08-01T09:12:42.695Z,54.61
2022-08-01T09:15:46.714Z,54.13
2022-08-01T09:18:35.125Z,53.36
2022-08-01T09:21:25.767Z,53.67
2022-08-01T09:24:30.937Z,53.96
2022-08-01T09:27:24.374Z,54.14
2022-08-01T09:30:26.168Z,54.05
2022-08-01T09:33:21.867Z,54.27
2022-08-01T09:36:05.467Z,54.10
2022-08-01T09:38:53.465Z,54.13
2022-08-01T09:41:40.241Z,54.48
2022-08-01T09:44:55.132Z,54.45
2022-08-01T09:47:46.541Z,53.95
2022-08-01T09:50:47.061Z,52.95
2022-08-01T09:53:31.003Z,52.43
2022-08-01T09:56:20.379Z,52.61
2022-08-01T09:59:06.867Z,51.77
2022-08-01T10:01:56.739Z,50.81
2022-08-01T10:04:38.400Z,50.82
2022-08-01T10:07:27.680Z,50.18
2022-08-01T10:10:23.511Z,49.63
2022-08-01T10:13:17.371Z,50.65
2022-08-01T10:15:58.625Z,50.14
2022-08-01T10:18:50.188Z,50.29
2022-08-01T10:21:35.616Z,49.94
2022-08-01T10:24:47.440Z,50.69
2022-08-01T10:27:38.406Z,50.79
2022-08-01T10:30:29.759Z,50.95
2022-08-01T10:33:19.917Z,50.71
2022-08-01T10:36:21.394Z,50.69
2022-08-01T10:39:05.366Z,50.52
2022-08-01T10:41:54.389Z,50.85
2022-08-01T10:44:38.659Z,51.51
2022-08-01T10:47:49.735Z,53.10
2022-08-01T10:50:43.317Z,54.17
2022-08-01T10:53:42.938Z,53.98
2022-08-01T10:56:48.768Z,54.01
2022-08-01T10:59:50.026Z,53.27
2022-08-01T11:02:45.692Z,52.78
2022-08-01T11:05:30.843Z,51.82
2022-08-01T11:08:29.512Z,50.63
2022-08-01T11:11:12.410Z,50.08
2022-08-01T11:14:16.445Z,48.29
2022-08-01T11:16:59.392Z,47.75
2022-08-01T11:20:31.642Z,48.32
2022-08-01T11:23:25.471Z,46.73
2022-08-01T11:26:17.634Z,45.93
2022-08-01T11:29:22.580Z,45.07
2022-08-01T11:32:42.430Z,44.11
2022-08-01T11:35:34.448Z,42.98
2022-08-01T11:38:35.097Z,43.03
2022-08-01T11:41:18.430Z,42.73
2022-08-01T11:44:16.632Z,42.05
2022-08-01T11:47:10.751Z,42.17
2022-08-01T11:50:02.648Z,43.34
2022-08-01T11:52:47.246Z,44.10
2022-08-01T11:55:36.571Z,44.25
2022-08-01T11:58:22.015Z,44.19
2022-08-01T12:01:15.810Z,43.43
2022-08-01T12:07:20.618Z,41.84
2022-08-01T12:10:19.475Z,40.01
2022-08-01T12:13:13.762Z,40.45
2022-08-01T12:15:56.912Z,40.40
2022-08-01T12:18:50.610Z,41.27
2022-08-01T12:21:32.210Z,41.27
2022-08-01T12:24:36.440Z,42.46
2022-08-01T12:27:34.634Z,43.08
2022-08-01T12:30:17.643Z,44.17
2022-08-01T12:33:06.516Z,45.41
2022-08-01T12:35:49.123Z,45.59
2022-08-01T12:38:41.963Z,44.71
2022-08-01T12:41:22.608Z,44.62
2022-08-01T12:44:09.482Z,44.46
2022-08-01T12:46:52.776Z,43.73
2022-08-01T12:49:43.473Z,43.91
2022-08-01T12:52:26.805Z,44.02
2022-08-01T12:55:33.914Z,43.97
2022-08-01T12:58:18.121Z,44.18
2022-08-01T13:01:17.933Z,44.42
2022-08-01T13:04:07.686Z,44.35
2022-08-01T13:07:01.133Z,44.10
2022-08-01T13:09:43.373Z,43.97
2022-08-01T13:12:30.857Z,44.21
2022-08-01T13:15:31.976Z,45.93
2022-08-01T13:18:39.488Z,46.55
2022-08-01T13:21:54.567Z,47.10
2022-08-01T13:24:51.771Z,46.93
2022-08-01T13:27:38.599Z,46.05
2022-08-01T13:30:34.528Z,45.36
2022-08-01T13:33:23.283Z,45.55
2022-08-01T13:36:06.496Z,45.69
2022-08-01T13:39:12.098Z,46.35
2022-08-01T13:41:54.663Z,46.20
2022-08-01T13:44:47.007Z,46.92
2022-08-01T13:47:31.635Z,46.13
2022-08-01T13:50:19.726Z,46.42
2022-08-01T13:53:01.688Z,46.88
2022-08-01T13:55:50.692Z,47.30
2022-08-01T13:58:31.631Z,47.11
2022-08-01T14:01:23.851Z,46.82
2022-08-01T14:04:06.927Z,46.41
2022-08-01T14:06:58.686Z,45.68
2022-08-01T14:09:45.033Z,46.67
2022-08-01T14:12:50.945Z,47.30
2022-08-01T14:15:38.656Z,46.88
2022-08-01T14:18:30.221Z,47.82
2022-08-01T14:21:11.908Z,49.26
2022-08-01T14:23:59.619Z,49.53
2022-08-01T14:26:40.914Z,49.84
2022-08-01T14:30:01.175Z,49.48
2022-08-01T14:32:29.545Z,50.01
2022-08-01T14:35:16.733Z,50.35
2022-08-01T14:37:58.544Z,50.17
2022-08-01T14:40:52.275Z,49.82
2022-08-01T14:43:34.054Z,49.89
2022-08-01T14:46:24.642Z,50.78
2022-08-01T14:49:06.740Z,51.16
2022-08-01T14:51:54.785Z,50.82
2022-08-01T14:54:38.048Z,50.55
2022-08-01T14:57:24.670Z,50.04
2022-08-01T15:00:06.790Z,49.40
2022-08-01T15:02:55.869Z,49.42
2022-08-01T15:05:36.576Z,50.06
2022-08-01T15:08:30.999Z,50.26
2022-08-01T15:11:11.569Z,50.03
2022-08-01T15:14:18.187Z,49.97
2022-08-01T15:16:58.958Z,49.63
2022-08-01T15:19:46.745Z,49.51
2022-08-01T15:22:29.587Z,50.22
2022-08-01T15:25:25.629Z,50.09
2022-08-01T15:28:27.583Z,50.69
2022-08-01T15:31:13.795Z,50.74
2022-08-01T15:34:05.581Z,51.17
2022-08-01T15:36:48.582Z,51.23
2022-08-01T15:39:35.939Z,51.69
2022-08-01T15:42:20.134Z,51.22
2022-08-01T15:45:37.483Z,50.39
2022-08-01T15:48:16.778Z,49.80
2022-08-01T15:51:03.602Z,50.65
2022-08-01T15:53:46.636Z,51.08
2022-08-01T15:56:37.724Z,50.66
2022-08-01T15:59:23.155Z,50.57
2022-08-01T16:02:10.270Z,50.51
2022-08-01T16:04:51.923Z,51.19
2022-08-01T16:07:59.710Z,51.20
2022-08-01T16:10:43.780Z,50.23
2022-08-01T16:13:32.046Z,50.43
2022-08-01T16:16:16.783Z,50.28
2022-08-01T16:19:05.970Z,50.16
2022-08-01T16:21:48.095Z,49.81
2022-08-01T16:24:38.004Z,49.51
2022-08-01T16:27:18.831Z,48.55
2022-08-01T16:30:07.874Z,49.16
2022-08-01T16:32:53.141Z,49.43
2022-08-01T16:35:46.902Z,49.77
2022-08-01T16:38:30.789Z,50.16
2022-08-01T16:41:21.670Z,49.34
2022-08-01T16:44:02.935Z,49.71
2022-08-01T16:46:51.380Z,49.81
2022-08-01T16:49:33.299Z,49.82
2022-08-01T16:52:28.545Z,50.21
2022-08-01T16:55:11.720Z,49.63
2022-08-01T16:57:59.645Z,49.34
2022-08-01T17:00:43.177Z,49.43
2022-08-01T17:03:51.540Z,49.84
2022-08-01T17:06:34.020Z,49.56
2022-08-01T17:09:21.642Z,50.16
2022-08-01T17:12:02.726Z,49.89
2022-08-01T17:14:55.050Z,50.48
2022-08-01T17:17:36.574Z,50.53
2022-08-01T17:20:23.645Z,50.06
2022-08-01T17:23:04.911Z,50.43
2022-08-01T17:25:53.638Z,50.73
2022-08-01T17:28:36.107Z,50.57
2022-08-01T17:31:24.039Z,50.22
2022-08-01T17:34:04.939Z,50.56
2022-08-01T17:36:55.418Z,50.93
2022-08-01T17:39:40.042Z,52.00
2022-08-01T17:42:26.668Z,52.58
2022-08-01T17:45:07.762Z,53.01
2022-08-01T17:48:22.663Z,53.71
2022-08-01T17:51:04.228Z,54.20
2022-08-01T17:53:57.255Z,54.42
2022-08-01T17:56:42.997Z,55.25
2022-08-01T17:59:33.651Z,55.54
2022-08-01T18:02:18.317Z,56.45
2022-08-01T18:05:09.631Z,56.96
2022-08-01T18:08:01.033Z,57.80
2022-08-01T18:10:49.656Z,57.63
2022-08-01T18:13:32.461Z,58.00
2022-08-01T18:16:20.051Z,58.32
2022-08-01T18:19:00.817Z,58.75
2022-08-01T18:21:51.571Z,58.98
2022-08-01T18:24:40.794Z,60.35
2022-08-01T18:27:21.681Z,60.73
2022-08-01T18:30:09.861Z,61.27
2022-08-01T18:32:51.059Z,61.10
2022-08-01T18:35:52.557Z,61.40
2022-08-01T18:38:39.058Z,61.13
2022-08-01T18:41:30.808Z,61.85
2022-08-01T18:44:14.464Z,62.71
2022-08-01T18:47:05.313Z,63.26
2022-08-01T18:49:49.717Z,63.44
2022-08-01T18:52:37.027Z,63.86
2022-08-01T18:55:18.072Z,63.92
2022-08-01T18:58:07.279Z,64.32
2022-08-01T19:00:50.057Z,64.67
2022-08-01T19:03:42.529Z,65.54
2022-08-01T19:06:24.152Z,66.39
2022-08-01T19:09:20.886Z,66.71
2022-08-01T19:12:02.528Z,67.13
2022-08-01T19:14:50.810Z,66.45
2022-08-01T19:17:35.551Z,66.88
2022-08-01T19:20:24.617Z,66.85
2022-08-01T19:23:05.707Z,67.36
2022-08-01T19:26:04.045Z,67.88
2022-08-01T19:28:54.120Z,68.10
2022-08-01T19:31:48.972Z,68.83
2022-08-01T19:34:31.108Z,69.40
2022-08-01T19:37:22.945Z,70.37
2022-08-01T19:40:08.091Z,71.45
2022-08-01T19:42:57.688Z,72.26
2022-08-01T19:45:41.496Z,72.95
2022-08-01T19:48:30.825Z,73.09
2022-08-01T19:51:19.869Z,73.91
2022-08-01T19:54:12.964Z,74.33
2022-08-01T19:56:56.564Z,74.52
2022-08-01T19:59:43.823Z,74.90
2022-08-01T20:02:30.704Z,74.53
2022-08-01T20:05:22.886Z,74.77
2022-08-01T20:08:05.775Z,75.20
2022-08-01T20:10:53.877Z,75.05
2022-08-01T20:13:39.222Z,75.69
2022-08-01T20:16:29.369Z,75.76
2022-08-01T20:19:09.772Z,75.85
2022-08-01T20:22:11.640Z,76.04
2022-08-01T20:25:11.141Z,76.11
2022-08-01T20:28:00.690Z,76.76
2022-08-01T20:30:43.147Z,77.30
2022-08-01T20:33:30.894Z,77.58
2022-08-01T20:36:24.993Z,77.72
2022-08-01T20:39:15.227Z,77.31
2022-08-01T20:41:59.593Z,77.73
2022-08-01T20:44:49.839Z,78.76
2022-08-01T20:47:33.871Z,78.70
2022-08-01T20:50:54.373Z,79.08
2022-08-01T20:53:38.523Z,79.34
2022-08-01T20:56:31.888Z,79.28
2022-08-01T20:59:39.806Z,79.76
2022-08-01T21:02:57.179Z,79.79
2022-08-01T21:05:41.110Z,79.31
2022-08-01T21:08:30.857Z,79.19
2022-08-01T21:11:14.522Z,79.61
2022-08-01T21:14:10.527Z,80.27
2022-08-01T21:16:57.791Z,80.86
2022-08-01T21:19:51.912Z,81.35
2022-08-01T21:22:44.797Z,81.56
2022-08-01T21:25:43.783Z,81.01
2022-08-01T21:28:33.180Z,82.21
2022-08-01T21:31:15.925Z,82.93
2022-08-01T21:34:14.772Z,83.72
2022-08-01T21:37:01.976Z,82.30
2022-08-01T21:39:45.576Z,82.37
2022-08-01T21:42:34.884Z,83.20
2022-08-01T21:48:37.147Z,84.03
2022-08-01T21:51:33.540Z,83.68
2022-08-01T21:54:30.910Z,83.42
2022-08-01T21:57:47.826Z,84.12
2022-08-01T22:00:42.278Z,84.77
2022-08-01T22:03:42.615Z,85.11
2022-08-01T22:06:34.968Z,85.40
2022-08-01T22:09:17.432Z,85.26
2022-08-01T22:12:17.558Z,84.95
2022-08-01T22:15:03.623Z,85.66
2022-08-01T22:17:54.946Z,86.78
2022-08-01T22:20:35.811Z,86.22
2022-08-01T22:23:25.086Z,84.67
2022-08-01T22:26:17.569Z,85.90
2022-08-01T22:28:59.967Z,85.90
2022-08-01T22:31:47.834Z,86.74
2022-08-01T22:34:30.530Z,88.84
2022-08-01T22:37:55.899Z,88.62
2022-08-01T22:40:21.946Z,88.46
2022-08-01T22:43:14.193Z,88.52
2022-08-01T22:46:04.898Z,88.49
2022-08-01T22:49:00.647Z,87.88
2022-08-01T22:51:54.621Z,86.49
2022-08-01T22:54:48.222Z,86.88
2022-08-01T22:57:38.485Z,87.87
2022-08-01T23:00:25.846Z,88.85
2022-08-01T23:03:31.933Z,89.77
2022-08-01T23:06:42.243Z,89.76
2022-08-01T23:09:25.153Z,89.36
2022-08-01T23:12:34.265Z,89.10
2022-08-01T23:15:15.145Z,89.32
2022-08-01T23:18:05.338Z,89.08
2022-08-01T23:20:46.099Z,88.56
2022-08-01T23:23:39.842Z,88.56
2022-08-01T23:26:36.855Z,88.54
2022-08-01T23:29:23.868Z,87.96
2022-08-01T23:32:05.775Z,86.52
2022-08-01T23:34:55.863Z,87.21
2022-08-01T23:37:38.969Z,86.65
2022-08-01T23:40:27.263Z,87.63
2022-08-01T23:43:14.569Z,87.20
2022-08-01T23:46:05.605Z,88.32
2022-08-01T23:48:46.996Z,88.89
2022-08-01T23:51:33.862Z,88.90
2022-08-01T23:54:15.419Z,88.97
2022-08-01T23:57:05.880Z,89.01
2022-08-01T23:59:52.859Z,88.24
